Montague, Canada
Current Conditions -  °F | °C
As of 7:00 AM on Friday 24 Oct 2014 (Local Time) from CYYG Reporting Station
Rain Showers Rain Showers  
Wind Chill: 50°   Ceiling: 600
Heat Index: 50°   Visibility: 15mi
Dew Point: 50°   Wind: 13mph
Humidity: 100%   Direction: 70°ENE
Pressure: 29.7"   Gusts: NA
Location:  46.17°N, 62.65°W
Report Text: CYYG 241000Z 07011KT 15SM -SHRA OVC006 10/10 A2970 RMK SF8 SLP058
Loading
Personal Weather Stations






























Interactive Weather Map
Tropical Storm Tracking
New forecast layout! Learn more

10-Day Weather Forecast

Advertisements
Track Severe Weather on mobile